Tipton, United Kingdom
Current Conditions -  °F | °C
As of 2:20 AM on Friday 21 Nov 2014 (Local Time) from EGBB Reporting Station
Haze Haze  
Wind Chill:   Ceiling: 2500
Heat Index:   Visibility: 2.3mi
Dew Point:   Wind: 5mph
Humidity: 93%   Direction: 80°E
Pressure: 30.18"   Gusts: NA
Location:  52.54°N, 2.04°W
Report Text: EGBB 210220Z AUTO 08004KT 3700 HZ OVC025/// 07/06 Q1022
Loading
Personal Weather Stations






























Interactive Weather Map New forecast layout! Learn more

10-Day Weather Forecast

Advertisements
Track Severe Weather on mobile